createdAt,value
2019-01-24T00:00:00.832Z,22.27
2019-01-24T00:02:27.471Z,22.28
2019-01-24T00:04:54.128Z,22.28
2019-01-24T00:07:20.767Z,22.30
2019-01-24T00:09:47.420Z,22.26
2019-01-24T00:12:14.060Z,22.26
2019-01-24T00:14:42.062Z,22.23
2019-01-24T00:17:07.364Z,22.28
2019-01-24T00:19:34.033Z,22.25
2019-01-24T00:22:00.674Z,22.23
2019-01-24T00:24:30.528Z,22.22
2019-01-24T00:26:57.186Z,22.24
2019-01-24T00:29:23.825Z,22.21
2019-01-24T00:31:50.469Z,22.24
2019-01-24T00:34:23.051Z,22.23
2019-01-24T00:36:43.813Z,22.23
2019-01-24T00:39:10.465Z,22.19
2019-01-24T00:41:37.116Z,22.20
2019-01-24T00:44:03.763Z,22.18
2019-01-24T00:46:30.409Z,22.20
2019-01-24T00:48:57.056Z,22.19
2019-01-24T00:51:23.705Z,22.15
2019-01-24T00:53:50.340Z,22.13
2019-01-24T00:56:16.980Z,22.16
2019-01-24T00:58:43.639Z,22.17
2019-01-24T01:01:10.288Z,22.22
2019-01-24T01:03:36.943Z,22.15
2019-01-24T01:06:03.577Z,22.12
2019-01-24T01:08:30.282Z,22.13
2019-01-24T01:10:56.926Z,22.18
2019-01-24T01:13:23.690Z,22.15
2019-01-24T01:15:50.339Z,22.17
2019-01-24T01:18:16.978Z,22.14
2019-01-24T01:20:43.667Z,22.17
2019-01-24T01:23:10.306Z,22.10
2019-01-24T01:25:36.985Z,22.20
2019-01-24T01:28:03.641Z,22.10
2019-01-24T01:30:30.297Z,22.15
2019-01-24T01:32:56.935Z,22.13
2019-01-24T01:35:23.682Z,22.18
2019-01-24T01:37:50.325Z,22.16
2019-01-24T01:40:16.966Z,22.19
2019-01-24T01:42:43.645Z,22.17
2019-01-24T01:45:10.294Z,22.15
2019-01-24T01:47:36.927Z,22.11
2019-01-24T01:50:03.689Z,22.13
2019-01-24T01:52:30.332Z,22.11
2019-01-24T01:54:56.984Z,22.12
2019-01-24T01:57:23.627Z,22.14
2019-01-24T01:59:50.271Z,22.13
2019-01-24T02:02:16.909Z,22.09
2019-01-24T02:04:43.597Z,22.11
2019-01-24T02:07:10.234Z,22.11
2019-01-24T02:09:36.890Z,22.11
2019-01-24T02:12:03.543Z,22.08
2019-01-24T02:14:30.233Z,22.13
2019-01-24T02:16:56.887Z,22.13
2019-01-24T02:19:23.569Z,22.09
2019-01-24T02:21:50.226Z,22.07
2019-01-24T02:24:16.876Z,22.06
2019-01-24T02:26:43.660Z,22.06
2019-01-24T02:29:10.314Z,22.01
2019-01-24T02:31:36.963Z,22.02
2019-01-24T02:34:03.607Z,22.03
2019-01-24T02:36:31.443Z,22.04
2019-01-24T02:38:56.883Z,22.07
2019-01-24T02:41:23.516Z,21.89
2019-01-24T02:43:50.161Z,22.14
2019-01-24T02:46:16.798Z,22.15
2019-01-24T02:48:43.454Z,22.15
2019-01-24T02:51:10.090Z,22.16
2019-01-24T02:53:36.733Z,22.03
2019-01-24T02:56:03.388Z,22.04
2019-01-24T02:58:30.113Z,22.03
2019-01-24T03:00:56.772Z,22.08
2019-01-24T03:03:23.416Z,22.12
2019-01-24T03:05:50.066Z,22.12
2019-01-24T03:08:16.746Z,22.15
2019-01-24T03:10:43.362Z,22.19
2019-01-24T03:13:09.999Z,22.15
2019-01-24T03:15:36.654Z,22.14
2019-01-24T03:18:03.293Z,22.21
2019-01-24T03:20:29.973Z,22.16
2019-01-24T03:22:56.613Z,22.15
2019-01-24T03:25:23.248Z,22.16
2019-01-24T03:27:49.906Z,22.14
2019-01-24T03:30:16.554Z,22.18
2019-01-24T03:32:43.193Z,22.12
2019-01-24T03:35:09.833Z,22.19
2019-01-24T03:37:36.525Z,22.13
2019-01-24T03:40:03.168Z,22.11
2019-01-24T03:42:29.817Z,22.20
2019-01-24T03:44:56.467Z,22.14
2019-01-24T03:47:23.108Z,22.18
2019-01-24T03:49:49.753Z,22.14
2019-01-24T03:52:16.395Z,22.20
2019-01-24T03:54:43.047Z,22.14
2019-01-24T03:57:09.691Z,22.21
2019-01-24T03:59:36.375Z,22.19
2019-01-24T04:02:03.021Z,22.20
2019-01-24T04:04:29.656Z,22.16
2019-01-24T04:06:56.328Z,22.17
2019-01-24T04:09:22.988Z,22.07
2019-01-24T04:11:49.635Z,23.00
2019-01-24T04:14:16.292Z,23.71
2019-01-24T04:16:42.942Z,23.92
2019-01-24T04:19:09.580Z,24.28
2019-01-24T04:21:36.217Z,24.11
2019-01-24T04:24:02.876Z,24.08
2019-01-24T04:26:29.521Z,24.11
2019-01-24T04:28:56.186Z,23.91
2019-01-24T04:31:22.826Z,23.98
2019-01-24T04:33:49.513Z,23.98
2019-01-24T04:36:16.148Z,23.61
2019-01-24T04:38:42.884Z,23.42
2019-01-24T04:41:09.521Z,23.17
2019-01-24T04:43:36.160Z,23.08
2019-01-24T04:46:02.854Z,23.05
2019-01-24T04:48:29.527Z,22.97
2019-01-24T04:50:56.164Z,22.90
2019-01-24T04:53:22.852Z,22.85
2019-01-24T04:55:49.485Z,22.89
2019-01-24T04:58:16.125Z,22.77
2019-01-24T05:00:42.786Z,22.79
2019-01-24T05:03:09.428Z,22.69
2019-01-24T05:05:36.078Z,22.73
2019-01-24T05:08:02.770Z,22.83
2019-01-24T05:10:29.409Z,22.94
2019-01-24T05:12:56.054Z,22.84
2019-01-24T05:15:22.693Z,22.97
2019-01-24T05:17:49.334Z,23.04
2019-01-24T05:20:15.994Z,22.83
2019-01-24T05:22:42.646Z,23.01
2019-01-24T05:25:09.284Z,22.96
2019-01-24T05:27:35.933Z,23.05
2019-01-24T05:30:02.585Z,23.23
2019-01-24T05:32:29.225Z,23.28
2019-01-24T05:34:55.868Z,23.29
2019-01-24T05:37:22.514Z,23.28
2019-01-24T05:39:49.164Z,23.32
2019-01-24T05:42:15.814Z,23.29
2019-01-24T05:44:42.467Z,23.02
2019-01-24T05:47:09.121Z,23.48
2019-01-24T05:49:35.783Z,23.54
2019-01-24T05:52:02.423Z,23.79
2019-01-24T05:54:29.079Z,23.84
2019-01-24T05:56:55.765Z,23.91
2019-01-24T05:59:22.425Z,23.94
2019-01-24T06:01:49.123Z,24.00
2019-01-24T06:04:15.764Z,24.03
2019-01-24T06:06:42.409Z,24.08
2019-01-24T06:09:09.113Z,24.07
2019-01-24T06:11:35.759Z,24.11
2019-01-24T06:14:02.465Z,23.99
2019-01-24T06:16:29.116Z,24.04
2019-01-24T06:18:55.770Z,24.04
2019-01-24T06:21:22.425Z,24.11
2019-01-24T06:23:49.083Z,24.12
2019-01-24T06:26:15.779Z,24.17
2019-01-24T06:28:42.419Z,24.06
2019-01-24T06:31:09.066Z,24.22
2019-01-24T06:33:35.768Z,24.06
2019-01-24T06:36:02.404Z,24.11
2019-01-24T06:38:29.054Z,24.19
2019-01-24T06:40:55.827Z,24.22
2019-01-24T06:43:22.491Z,24.27
2019-01-24T06:45:49.141Z,24.29
2019-01-24T06:48:15.828Z,24.37
2019-01-24T06:50:42.500Z,24.35
2019-01-24T06:53:09.141Z,24.32
2019-01-24T06:55:35.840Z,24.18
2019-01-24T06:58:02.631Z,24.36
2019-01-24T07:00:29.272Z,24.38
2019-01-24T07:02:55.916Z,24.39
2019-01-24T07:05:22.566Z,24.54
2019-01-24T07:07:49.210Z,24.30
2019-01-24T07:10:15.858Z,24.42
2019-01-24T07:12:42.558Z,24.44
2019-01-24T07:15:09.220Z,24.51
2019-01-24T07:17:36.239Z,24.53
2019-01-24T07:20:02.869Z,24.41
2019-01-24T07:22:29.527Z,24.47
2019-01-24T07:24:56.182Z,24.64
2019-01-24T07:27:23.085Z,24.76
2019-01-24T07:29:50.942Z,24.68
2019-01-24T07:32:17.833Z,24.67
2019-01-24T07:34:44.748Z,24.68
2019-01-24T07:37:11.382Z,24.81
2019-01-24T07:39:38.342Z,24.88
2019-01-24T07:42:05.178Z,24.73
2019-01-24T07:44:32.041Z,24.64
2019-01-24T07:47:01.956Z,24.85
2019-01-24T07:49:28.736Z,24.90
2019-01-24T07:51:55.954Z,24.80
2019-01-24T07:54:22.675Z,24.79
2019-01-24T07:56:51.482Z,24.86
2019-01-24T07:59:18.244Z,24.93
2019-01-24T08:01:44.923Z,25.03
2019-01-24T08:04:11.614Z,25.21
2019-01-24T08:06:38.372Z,25.02
2019-01-24T08:09:05.032Z,25.00
2019-01-24T08:11:31.683Z,25.07
2019-01-24T08:13:58.383Z,25.20
2019-01-24T08:16:25.029Z,25.31
2019-01-24T08:18:51.683Z,25.25
2019-01-24T08:21:18.336Z,25.27
2019-01-24T08:23:44.990Z,25.37
2019-01-24T08:26:11.839Z,25.45
2019-01-24T08:28:38.468Z,25.46
2019-01-24T08:31:05.133Z,25.61
2019-01-24T08:33:31.774Z,25.68
2019-01-24T08:35:58.472Z,25.88
2019-01-24T08:38:25.290Z,25.99
2019-01-24T08:40:51.909Z,25.94
2019-01-24T08:43:18.588Z,26.10
2019-01-24T08:45:45.346Z,26.06
2019-01-24T08:48:12.083Z,26.18
2019-01-24T08:50:38.864Z,26.35
2019-01-24T08:53:05.647Z,26.36
2019-01-24T08:55:32.495Z,26.27
2019-01-24T08:57:59.279Z,26.22
2019-01-24T09:00:26.041Z,26.20
2019-01-24T09:02:52.704Z,26.33
2019-01-24T09:05:19.570Z,26.40
2019-01-24T09:07:46.287Z,26.50
2019-01-24T09:10:13.127Z,26.53
2019-01-24T09:12:39.968Z,26.58
2019-01-24T09:15:06.774Z,26.56
2019-01-24T09:17:33.575Z,26.51
2019-01-24T09:20:00.414Z,26.74
2019-01-24T09:22:27.108Z,26.69
2019-01-24T09:24:53.798Z,26.67
2019-01-24T09:27:20.464Z,26.64
2019-01-24T09:29:47.154Z,26.84
2019-01-24T09:32:13.801Z,26.91
2019-01-24T09:34:40.471Z,26.80
2019-01-24T09:37:07.135Z,26.64
2019-01-24T09:39:33.852Z,27.04
2019-01-24T09:42:00.487Z,26.97
2019-01-24T09:44:27.167Z,27.07
2019-01-24T09:46:53.858Z,27.06
2019-01-24T09:49:20.502Z,27.19
2019-01-24T09:51:47.159Z,27.18
2019-01-24T09:54:13.812Z,27.12
2019-01-24T09:56:40.454Z,26.81
2019-01-24T09:59:07.116Z,26.75
2019-01-24T10:01:33.765Z,26.64
2019-01-24T10:04:00.553Z,26.69
2019-01-24T10:06:27.454Z,26.79
2019-01-24T10:08:54.302Z,26.88
2019-01-24T10:11:23.620Z,27.04
2019-01-24T10:13:47.995Z,26.92
2019-01-24T10:16:14.809Z,27.09
2019-01-24T10:18:41.511Z,27.01
2019-01-24T10:21:08.147Z,26.83
2019-01-24T10:23:34.886Z,26.75
2019-01-24T10:26:01.536Z,27.05
2019-01-24T10:28:28.399Z,26.93
2019-01-24T10:30:55.062Z,26.93
2019-01-24T10:33:21.709Z,26.91
2019-01-24T10:35:48.348Z,26.73
2019-01-24T10:38:15.119Z,26.77
2019-01-24T10:40:41.782Z,26.78
2019-01-24T10:43:08.504Z,26.22
2019-01-24T10:45:35.161Z,26.77
2019-01-24T10:48:01.812Z,27.08
2019-01-24T10:50:28.652Z,27.28
2019-01-24T10:52:55.318Z,27.14
2019-01-24T10:55:21.972Z,26.91
2019-01-24T10:57:48.633Z,26.85
2019-01-24T11:00:15.387Z,27.03
2019-01-24T11:02:42.067Z,27.00
2019-01-24T11:05:08.761Z,26.88
2019-01-24T11:07:35.453Z,26.90
2019-01-24T11:10:02.098Z,26.79
2019-01-24T11:12:29.251Z,26.79
2019-01-24T11:14:56.173Z,26.81
2019-01-24T11:17:23.025Z,26.82
2019-01-24T11:19:49.887Z,26.85
2019-01-24T11:22:16.670Z,26.98
2019-01-24T11:24:43.398Z,26.92
2019-01-24T11:27:10.057Z,26.57
2019-01-24T11:29:36.712Z,26.76
2019-01-24T11:32:03.553Z,26.79
2019-01-24T11:34:30.173Z,27.07
2019-01-24T11:36:58.162Z,27.02
2019-01-24T11:39:23.534Z,27.06
2019-01-24T11:41:50.279Z,27.08
2019-01-24T11:44:17.145Z,27.22
2019-01-24T11:46:43.858Z,27.15
2019-01-24T11:49:10.749Z,27.24
2019-01-24T11:51:37.756Z,27.24
2019-01-24T11:54:04.368Z,27.22
2019-01-24T11:56:31.127Z,27.33
2019-01-24T11:58:58.260Z,27.37
2019-01-24T12:01:24.950Z,27.34
2019-01-24T12:03:52.772Z,27.36
2019-01-24T12:06:23.376Z,27.43
2019-01-24T12:08:49.740Z,27.71
2019-01-24T12:11:16.391Z,28.16
2019-01-24T12:13:43.107Z,28.34
2019-01-24T12:16:09.959Z,28.09
2019-01-24T12:18:36.615Z,28.07
2019-01-24T12:21:03.270Z,28.24
2019-01-24T12:23:29.936Z,28.47
2019-01-24T12:25:56.578Z,28.21
2019-01-24T12:28:23.354Z,28.44
2019-01-24T12:30:50.057Z,28.35
2019-01-24T12:33:16.821Z,28.11
2019-01-24T12:35:43.505Z,28.62
2019-01-24T12:38:10.173Z,28.55
2019-01-24T12:40:36.887Z,28.89
2019-01-24T12:43:03.568Z,28.85
2019-01-24T12:45:30.733Z,28.47
2019-01-24T12:47:57.394Z,28.24
2019-01-24T12:50:24.065Z,28.03
2019-01-24T12:52:53.591Z,28.09
2019-01-24T12:55:20.251Z,28.08
2019-01-24T12:57:46.938Z,28.00
2019-01-24T13:00:13.618Z,28.16
2019-01-24T13:02:40.314Z,28.28
2019-01-24T13:05:06.986Z,27.57
2019-01-24T13:07:33.658Z,27.61
2019-01-24T13:10:00.350Z,27.48
2019-01-24T13:12:27.014Z,27.74
2019-01-24T13:14:53.719Z,27.21
2019-01-24T13:19:46.795Z,27.40
2019-01-24T13:22:13.842Z,27.61
2019-01-24T13:24:40.269Z,27.68
2019-01-24T13:27:07.061Z,27.76
2019-01-24T13:29:33.753Z,27.53
2019-01-24T13:32:00.514Z,27.74
2019-01-24T13:34:27.188Z,27.55
2019-01-24T13:36:53.909Z,27.76
2019-01-24T13:39:20.667Z,27.35
2019-01-24T13:41:47.306Z,27.38
2019-01-24T13:44:14.037Z,27.21
2019-01-24T13:46:40.767Z,27.55
2019-01-24T13:49:07.494Z,27.50
2019-01-24T13:51:34.162Z,27.25
2019-01-24T13:54:00.952Z,27.04
2019-01-24T13:56:27.606Z,27.25
2019-01-24T13:58:54.775Z,26.95
2019-01-24T14:01:21.461Z,26.95
2019-01-24T14:03:48.163Z,26.88
2019-01-24T14:06:14.880Z,26.99
2019-01-24T14:08:41.623Z,26.71
2019-01-24T14:11:08.408Z,26.77
2019-01-24T14:13:35.087Z,26.83
2019-01-24T14:16:01.738Z,26.83
2019-01-24T14:18:28.380Z,27.07
2019-01-24T14:20:55.075Z,27.40
2019-01-24T14:23:21.870Z,27.16
2019-01-24T14:25:48.521Z,27.29
2019-01-24T14:28:15.235Z,27.42
2019-01-24T14:30:41.978Z,27.40
2019-01-24T14:33:08.634Z,27.24
2019-01-24T14:35:35.298Z,27.30
2019-01-24T14:38:01.989Z,27.43
2019-01-24T14:40:28.633Z,27.46
2019-01-24T14:42:55.342Z,27.75
2019-01-24T14:45:22.109Z,27.37
2019-01-24T14:47:48.827Z,27.31
2019-01-24T14:50:15.487Z,27.35
2019-01-24T14:52:42.207Z,27.45
2019-01-24T14:55:08.842Z,27.24
2019-01-24T14:57:35.488Z,27.62
2019-01-24T15:00:02.162Z,27.67
2019-01-24T15:02:31.486Z,27.56
2019-01-24T15:04:58.771Z,27.71
2019-01-24T15:07:25.472Z,27.78
2019-01-24T15:09:52.122Z,27.72
2019-01-24T15:12:18.773Z,27.81
2019-01-24T15:14:45.502Z,27.72
2019-01-24T15:17:12.152Z,27.80
2019-01-24T15:19:38.860Z,27.77
2019-01-24T15:22:05.515Z,27.83
2019-01-24T15:24:32.179Z,27.83
2019-01-24T15:26:58.869Z,27.76
2019-01-24T15:29:25.516Z,27.72
2019-01-24T15:31:52.223Z,27.78
2019-01-24T15:34:18.978Z,27.65
2019-01-24T15:36:45.612Z,27.79
2019-01-24T15:39:12.270Z,28.16
2019-01-24T15:41:38.912Z,27.75
2019-01-24T15:44:05.574Z,27.67
2019-01-24T15:46:32.366Z,27.61
2019-01-24T15:48:59.111Z,27.82
2019-01-24T15:51:25.862Z,27.75
2019-01-24T15:53:52.524Z,27.81
2019-01-24T15:56:19.215Z,27.59
2019-01-24T15:58:45.900Z,27.78
2019-01-24T16:01:12.593Z,27.80
2019-01-24T16:03:39.359Z,27.89
2019-01-24T16:06:06.053Z,27.73
2019-01-24T16:08:32.701Z,27.73
2019-01-24T16:10:59.384Z,27.75
2019-01-24T16:13:26.044Z,27.78
2019-01-24T16:15:52.817Z,27.67
2019-01-24T16:18:19.458Z,27.74
2019-01-24T16:20:46.108Z,27.61
2019-01-24T16:23:12.752Z,27.51
2019-01-24T16:25:39.416Z,27.65
2019-01-24T16:28:06.072Z,27.64
2019-01-24T16:30:32.742Z,27.66
2019-01-24T16:32:59.391Z,27.52
2019-01-24T16:35:26.045Z,27.55
2019-01-24T16:37:52.686Z,27.41
2019-01-24T16:40:19.420Z,27.42
2019-01-24T16:42:46.060Z,27.42
2019-01-24T16:45:12.798Z,27.34
2019-01-24T16:47:39.474Z,27.39
2019-01-24T16:50:06.118Z,27.35
2019-01-24T16:52:32.770Z,27.32
2019-01-24T16:57:28.476Z,27.24
2019-01-24T16:59:55.131Z,27.25
2019-01-24T17:02:21.780Z,27.19
2019-01-24T17:04:48.438Z,27.16
2019-01-24T17:07:15.098Z,27.07
2019-01-24T17:09:41.769Z,27.03
2019-01-24T17:12:08.420Z,27.02
2019-01-24T17:14:35.070Z,26.92
2019-01-24T17:17:01.733Z,26.87
2019-01-24T17:19:28.389Z,26.85
2019-01-24T17:21:55.061Z,26.80
2019-01-24T17:24:21.703Z,26.83
2019-01-24T17:26:48.401Z,26.77
2019-01-24T17:29:15.075Z,26.72
2019-01-24T17:31:41.713Z,26.69
2019-01-24T17:34:08.364Z,26.61
2019-01-24T17:36:35.019Z,26.50
2019-01-24T17:39:01.674Z,26.52
2019-01-24T17:41:28.320Z,26.51
2019-01-24T17:43:54.957Z,26.43
2019-01-24T17:46:21.611Z,26.41
2019-01-24T17:48:48.292Z,26.34
2019-01-24T17:51:15.706Z,26.35
2019-01-24T17:53:41.609Z,26.25
2019-01-24T17:56:08.297Z,26.29
2019-01-24T17:58:34.945Z,26.20
2019-01-24T18:01:01.590Z,26.24
2019-01-24T18:03:28.313Z,26.13
2019-01-24T18:05:55.025Z,26.14
2019-01-24T18:08:21.664Z,26.07
2019-01-24T18:10:48.356Z,26.06
2019-01-24T18:13:15.015Z,25.95
2019-01-24T18:15:41.668Z,25.99
2019-01-24T18:18:08.320Z,25.88
2019-01-24T18:20:34.981Z,25.93
2019-01-24T18:23:01.626Z,25.84
2019-01-24T18:25:28.273Z,25.79
2019-01-24T18:27:55.161Z,25.73
2019-01-24T18:30:21.803Z,25.77
2019-01-24T18:32:48.446Z,25.65
2019-01-24T18:35:15.111Z,25.63
2019-01-24T18:37:41.806Z,25.59
2019-01-24T18:40:08.453Z,25.59
2019-01-24T18:42:35.087Z,25.59
2019-01-24T18:45:01.730Z,25.68
2019-01-24T18:47:28.448Z,25.58
2019-01-24T18:49:55.094Z,25.51
2019-01-24T18:52:21.739Z,25.48
2019-01-24T18:54:48.389Z,25.57
2019-01-24T18:57:15.065Z,25.50
2019-01-24T18:59:41.709Z,25.27
2019-01-24T19:02:08.489Z,25.16
2019-01-24T19:04:35.133Z,25.11
2019-01-24T19:07:01.781Z,25.02
2019-01-24T19:09:28.417Z,24.90
2019-01-24T19:11:55.113Z,24.88
2019-01-24T19:14:21.764Z,24.83
2019-01-24T19:16:48.509Z,24.82
2019-01-24T19:19:15.173Z,24.72
2019-01-24T19:21:43.109Z,24.76
2019-01-24T19:24:08.476Z,24.78
2019-01-24T19:26:35.125Z,24.81
2019-01-24T19:29:01.803Z,24.78
2019-01-24T19:31:28.423Z,24.84
2019-01-24T19:33:55.079Z,24.78
2019-01-24T19:36:21.730Z,24.70
2019-01-24T19:38:53.024Z,24.76
2019-01-24T19:41:15.017Z,24.66
2019-01-24T19:43:41.664Z,24.65
2019-01-24T19:46:08.349Z,24.65
2019-01-24T19:48:35.001Z,24.59
2019-01-24T19:51:01.648Z,24.59
2019-01-24T19:53:28.334Z,24.64
2019-01-24T19:55:54.991Z,24.55
2019-01-24T19:58:21.656Z,24.54
2019-01-24T20:00:48.305Z,24.48
2019-01-24T20:03:14.988Z,24.46
2019-01-24T20:05:41.633Z,24.46
2019-01-24T20:08:08.272Z,24.46
2019-01-24T20:10:34.916Z,24.41
2019-01-24T20:13:01.565Z,24.37
2019-01-24T20:15:28.220Z,24.33
2019-01-24T20:17:54.855Z,24.23
2019-01-24T20:20:21.563Z,24.25
2019-01-24T20:22:48.213Z,24.17
2019-01-24T20:25:14.974Z,24.08
2019-01-24T20:27:41.641Z,24.06
2019-01-24T20:30:08.304Z,23.99
2019-01-24T20:32:34.941Z,23.96
2019-01-24T20:35:01.583Z,23.93
2019-01-24T20:37:28.220Z,23.82
2019-01-24T20:39:54.861Z,23.87
2019-01-24T20:42:21.520Z,23.77
2019-01-24T20:44:48.158Z,23.80
2019-01-24T20:47:14.825Z,23.74
2019-01-24T20:49:41.475Z,23.74
2019-01-24T20:52:08.120Z,23.71
2019-01-24T20:54:34.782Z,23.67
2019-01-24T20:57:01.439Z,23.63
2019-01-24T20:59:28.138Z,23.62
2019-01-24T21:01:56.151Z,23.60
2019-01-24T21:04:21.495Z,23.53
2019-01-24T21:06:48.166Z,23.51
2019-01-24T21:09:15.097Z,23.47
2019-01-24T21:11:42.770Z,23.44
2019-01-24T21:14:08.103Z,23.41
2019-01-24T21:16:34.751Z,23.41
2019-01-24T21:19:01.448Z,23.39
2019-01-24T21:21:28.088Z,23.34
2019-01-24T21:23:54.741Z,23.34
2019-01-24T21:26:21.395Z,23.38
2019-01-24T21:28:48.096Z,23.32
2019-01-24T21:31:14.740Z,23.30
2019-01-24T21:33:41.392Z,23.23
2019-01-24T21:36:08.033Z,23.25
2019-01-24T21:38:34.684Z,23.20
2019-01-24T21:41:01.380Z,23.16
2019-01-24T21:43:28.070Z,23.14
2019-01-24T21:45:54.709Z,23.16
2019-01-24T21:48:21.363Z,23.09
2019-01-24T21:50:48.012Z,23.07
2019-01-24T21:53:14.661Z,23.08
2019-01-24T21:55:41.317Z,22.99
2019-01-24T21:58:07.956Z,22.98
2019-01-24T22:00:34.673Z,23.00
2019-01-24T22:03:01.314Z,22.95
2019-01-24T22:05:27.973Z,22.92
2019-01-24T22:07:54.613Z,22.94
2019-01-24T22:10:21.291Z,22.91
2019-01-24T22:12:47.955Z,22.89
2019-01-24T22:15:14.639Z,22.83
2019-01-24T22:17:41.282Z,22.82
2019-01-24T22:20:07.929Z,22.82
2019-01-24T22:22:34.578Z,22.79
2019-01-24T22:25:01.246Z,22.76
2019-01-24T22:27:27.890Z,22.67
2019-01-24T22:29:54.599Z,22.69
2019-01-24T22:32:21.301Z,22.69
2019-01-24T22:34:47.949Z,22.66
2019-01-24T22:37:14.602Z,22.64
2019-01-24T22:39:41.268Z,22.62
2019-01-24T22:42:07.920Z,22.63
2019-01-24T22:44:34.574Z,22.60
2019-01-24T22:47:01.222Z,22.54
2019-01-24T22:49:27.860Z,22.54
2019-01-24T22:51:54.506Z,22.52
2019-01-24T22:54:21.147Z,22.53
2019-01-24T22:56:47.810Z,22.47
2019-01-24T22:59:14.454Z,22.43
2019-01-24T23:01:41.108Z,22.49
2019-01-24T23:04:07.775Z,22.46
2019-01-24T23:06:34.427Z,22.42
2019-01-24T23:09:01.142Z,22.45
2019-01-24T23:11:27.829Z,22.38
2019-01-24T23:13:54.517Z,22.38
2019-01-24T23:16:21.173Z,22.35
2019-01-24T23:18:47.857Z,22.32
2019-01-24T23:21:14.519Z,22.31
2019-01-24T23:23:41.201Z,22.26
2019-01-24T23:26:07.858Z,22.28
2019-01-24T23:28:34.501Z,22.27
2019-01-24T23:31:01.206Z,22.25
2019-01-24T23:33:27.826Z,22.26
2019-01-24T23:35:54.504Z,22.25
2019-01-24T23:38:21.153Z,22.17
2019-01-24T23:40:47.802Z,22.19
2019-01-24T23:43:14.488Z,22.20
2019-01-24T23:45:41.137Z,22.17
2019-01-24T23:48:07.796Z,22.12
2019-01-24T23:50:34.439Z,22.06
2019-01-24T23:53:01.086Z,22.12
2019-01-24T23:55:27.772Z,22.09
2019-01-24T23:57:54.420Z,22.10
